createdAt,value
2022-09-06T00:01:52.702Z,21.07
2022-09-06T00:04:19.195Z,21.10
2022-09-06T00:06:45.647Z,21.10
2022-09-06T00:09:12.066Z,21.00
2022-09-06T00:11:39.989Z,20.85
2022-09-06T00:14:06.447Z,20.71
2022-09-06T00:16:32.932Z,20.72
2022-09-06T00:18:59.616Z,20.70
2022-09-06T00:21:28.803Z,20.71
2022-09-06T00:23:55.820Z,20.69
2022-09-06T00:26:23.336Z,20.71
2022-09-06T00:28:50.020Z,20.59
2022-09-06T00:31:22.256Z,20.44
2022-09-06T00:33:49.700Z,20.37
2022-09-06T00:36:17.035Z,20.56
2022-09-06T00:38:43.754Z,20.70
2022-09-06T00:41:12.883Z,20.70
2022-09-06T00:43:40.211Z,20.53
2022-09-06T00:46:09.479Z,20.55
2022-09-06T00:48:38.190Z,20.47
2022-09-06T00:51:10.947Z,20.55
2022-09-06T00:53:37.405Z,20.53
2022-09-06T00:56:04.021Z,20.50
2022-09-06T00:58:30.544Z,20.70
2022-09-06T01:00:57.060Z,20.64
2022-09-06T01:03:25.092Z,20.58
2022-09-06T01:05:58.904Z,20.40
2022-09-06T01:08:40.055Z,20.31
2022-09-06T01:11:28.587Z,20.12
2022-09-06T01:14:19.127Z,20.12
2022-09-06T01:17:05.930Z,20.17
2022-09-06T01:19:50.058Z,20.17
2022-09-06T01:22:53.542Z,20.33
2022-09-06T01:25:52.126Z,20.24
2022-09-06T01:28:36.630Z,20.09
2022-09-06T01:31:18.056Z,19.96
2022-09-06T01:33:56.807Z,19.85
2022-09-06T01:36:28.935Z,19.50
2022-09-06T01:38:55.607Z,19.44
2022-09-06T01:41:22.064Z,19.66
2022-09-06T01:43:51.784Z,19.70
2022-09-06T01:46:21.068Z,19.58
2022-09-06T01:48:59.828Z,19.37
2022-09-06T01:51:48.420Z,19.64
2022-09-06T01:54:32.555Z,19.68
2022-09-06T01:56:58.890Z,19.82
2022-09-06T01:59:30.996Z,19.77
2022-09-06T02:02:06.352Z,19.78
2022-09-06T02:04:53.006Z,19.77
2022-09-06T02:07:27.609Z,19.73
2022-09-06T02:10:03.398Z,19.66
2022-09-06T02:12:32.657Z,19.45
2022-09-06T02:15:06.035Z,19.55
2022-09-06T02:17:37.460Z,19.47
2022-09-06T02:20:04.480Z,19.57
2022-09-06T02:22:37.227Z,19.55
2022-09-06T02:25:07.285Z,19.68
2022-09-06T02:27:33.772Z,19.59
2022-09-06T02:30:02.882Z,19.68
2022-09-06T02:32:32.288Z,19.66
2022-09-06T02:34:58.964Z,19.64
2022-09-06T02:37:26.482Z,19.66
2022-09-06T02:39:56.223Z,19.59
2022-09-06T02:42:24.406Z,19.57
2022-09-06T02:44:50.929Z,19.32
2022-09-06T02:47:17.525Z,19.41
2022-09-06T02:49:43.912Z,19.51
2022-09-06T02:52:10.405Z,19.58
2022-09-06T02:54:36.801Z,19.54
2022-09-06T02:57:03.648Z,19.50
2022-09-06T02:59:30.058Z,19.41
2022-09-06T03:01:56.513Z,19.52
2022-09-06T03:04:23.007Z,19.55
2022-09-06T03:06:49.554Z,19.59
2022-09-06T03:09:15.975Z,19.49
2022-09-06T03:11:42.571Z,19.52
2022-09-06T03:14:08.989Z,19.54
2022-09-06T03:16:36.927Z,19.44
2022-09-06T03:19:03.437Z,19.43
2022-09-06T03:21:30.009Z,19.47
2022-09-06T03:23:56.518Z,19.42
2022-09-06T03:26:23.010Z,19.45
2022-09-06T03:28:50.411Z,19.46
2022-09-06T03:31:17.220Z,19.41
2022-09-06T03:33:43.720Z,19.14
2022-09-06T03:36:10.187Z,19.38
2022-09-06T03:38:36.648Z,19.22
2022-09-06T03:41:03.217Z,19.45
2022-09-06T03:43:29.834Z,19.40
2022-09-06T03:45:57.471Z,19.34
2022-09-06T03:48:26.694Z,19.46
2022-09-06T03:50:56.361Z,19.47
2022-09-06T03:53:24.558Z,19.47
2022-09-06T03:55:53.184Z,19.13
2022-09-06T03:58:21.981Z,19.23
2022-09-06T04:00:48.789Z,19.30
2022-09-06T04:03:15.453Z,19.21
2022-09-06T04:05:46.409Z,19.23
2022-09-06T04:08:13.163Z,19.31
2022-09-06T04:10:39.819Z,19.25
2022-09-06T04:13:06.234Z,19.28
2022-09-06T04:15:32.706Z,19.33
2022-09-06T04:17:59.120Z,19.31
2022-09-06T04:20:25.525Z,19.22
2022-09-06T04:22:51.933Z,19.22
2022-09-06T04:25:18.321Z,19.17
2022-09-06T04:27:44.745Z,19.33
2022-09-06T04:30:11.434Z,19.42
2022-09-06T04:32:37.853Z,19.16
2022-09-06T04:35:04.905Z,19.25
2022-09-06T04:37:31.980Z,19.25
2022-09-06T04:39:58.455Z,19.27
2022-09-06T04:42:24.884Z,19.21
2022-09-06T04:44:51.286Z,19.16
2022-09-06T04:47:19.200Z,19.20
2022-09-06T04:49:45.915Z,19.09
2022-09-06T04:52:12.495Z,19.09
2022-09-06T04:54:39.057Z,19.06
2022-09-06T04:57:05.742Z,18.97
2022-09-06T04:59:32.799Z,18.97
2022-09-06T05:01:59.295Z,18.96
2022-09-06T05:04:26.112Z,18.95
2022-09-06T05:07:05.065Z,19.01
2022-09-06T05:09:32.576Z,18.92
2022-09-06T05:11:59.807Z,18.95
2022-09-06T05:14:27.372Z,18.94
2022-09-06T05:16:54.555Z,19.02
2022-09-06T05:19:21.674Z,19.05
2022-09-06T05:21:48.106Z,19.05
2022-09-06T05:24:14.526Z,19.03
2022-09-06T05:26:40.946Z,19.05
2022-09-06T05:29:07.344Z,18.94
2022-09-06T05:31:35.372Z,19.14
2022-09-06T05:34:02.108Z,19.07
2022-09-06T05:36:30.329Z,19.14
2022-09-06T05:38:57.825Z,18.99
2022-09-06T05:41:24.959Z,19.04
2022-09-06T05:43:51.363Z,19.06
2022-09-06T05:46:17.890Z,18.99
2022-09-06T05:48:44.458Z,18.95
2022-09-06T05:51:13.417Z,18.96
2022-09-06T05:53:43.193Z,18.87
2022-09-06T05:56:13.761Z,18.88
2022-09-06T05:58:40.698Z,18.88
2022-09-06T06:01:14.425Z,18.86
2022-09-06T06:03:40.954Z,18.89
2022-09-06T06:06:07.496Z,18.90
2022-09-06T06:08:35.158Z,18.80
2022-09-06T06:11:02.467Z,18.91
2022-09-06T06:13:30.059Z,18.90
2022-09-06T06:15:56.675Z,18.99
2022-09-06T06:18:23.329Z,18.94
2022-09-06T06:20:49.885Z,18.90
2022-09-06T06:23:16.350Z,18.98
2022-09-06T06:25:42.781Z,19.05
2022-09-06T06:28:09.213Z,19.01
2022-09-06T06:30:35.913Z,18.97
2022-09-06T06:33:02.533Z,18.92
2022-09-06T06:35:29.058Z,18.88
2022-09-06T06:37:56.351Z,18.97
2022-09-06T06:40:22.756Z,18.94
2022-09-06T06:42:49.180Z,18.96
2022-09-06T06:45:15.678Z,19.13
2022-09-06T06:47:42.071Z,19.05
2022-09-06T06:50:08.837Z,19.07
2022-09-06T06:52:35.293Z,19.11
2022-09-06T06:55:01.713Z,19.14
2022-09-06T06:57:28.117Z,19.20
2022-09-06T06:59:54.545Z,19.26
2022-09-06T07:02:20.991Z,19.26
2022-09-06T07:04:47.552Z,19.34
2022-09-06T07:12:42.332Z,19.55
2022-09-06T07:15:09.394Z,19.70
2022-09-06T07:17:35.778Z,19.80
2022-09-06T07:22:36.750Z,19.93
2022-09-06T07:25:04.570Z,20.14
2022-09-06T07:27:47.646Z,20.31
2022-09-06T07:30:15.272Z,20.58
2022-09-06T07:32:41.693Z,20.99
2022-09-06T07:35:08.627Z,21.60
2022-09-06T07:37:35.465Z,22.18
2022-09-06T07:40:03.308Z,22.06
2022-09-06T07:42:35.623Z,22.35
2022-09-06T07:45:03.387Z,22.84
2022-09-06T07:55:38.204Z,24.16
2022-09-06T07:58:04.962Z,24.21
2022-09-06T08:00:31.913Z,24.01
2022-09-06T08:02:58.428Z,24.13
2022-09-06T08:10:57.703Z,25.10
2022-09-06T08:13:24.150Z,25.05
2022-09-06T08:16:01.650Z,25.40
2022-09-06T08:18:28.237Z,25.72
2022-09-06T08:20:55.234Z,24.75
2022-09-06T08:23:21.723Z,26.09
2022-09-06T08:25:58.537Z,26.21
2022-09-06T08:28:28.572Z,25.86
2022-09-06T08:30:56.008Z,26.67
2022-09-06T08:33:25.482Z,27.35
2022-09-06T08:35:58.927Z,27.14
2022-09-06T08:38:26.655Z,27.10
2022-09-06T08:40:55.279Z,27.34
2022-09-06T08:43:22.910Z,26.21
2022-09-06T08:45:55.978Z,27.02
2022-09-06T08:48:25.293Z,27.70
2022-09-06T08:51:11.912Z,28.15
2022-09-06T08:53:46.425Z,27.85
2022-09-06T08:56:23.297Z,28.38
2022-09-06T08:59:11.443Z,28.08
2022-09-06T09:02:12.175Z,28.15
2022-09-06T09:04:45.870Z,28.58
2022-09-06T09:07:39.178Z,28.52
2022-09-06T09:10:23.861Z,28.68
2022-09-06T09:12:50.413Z,29.01
2022-09-06T09:15:19.199Z,29.19
2022-09-06T09:17:48.435Z,29.16
2022-09-06T09:20:15.195Z,29.77
2022-09-06T09:22:42.054Z,28.95
2022-09-06T09:25:12.831Z,29.64
2022-09-06T09:27:40.104Z,29.05
2022-09-06T09:32:53.917Z,29.01
2022-09-06T09:35:22.307Z,29.98
2022-09-06T09:38:05.007Z,29.77
2022-09-06T09:40:40.167Z,29.85
2022-09-06T09:43:26.408Z,28.52
2022-09-06T09:46:14.604Z,29.85
2022-09-06T09:49:00.397Z,30.14
2022-09-06T09:51:27.930Z,29.68
2022-09-06T09:53:59.459Z,30.14
2022-09-06T09:56:52.946Z,29.25
2022-09-06T09:59:21.703Z,30.60
2022-09-06T10:01:48.631Z,31.03
2022-09-06T10:04:44.432Z,31.18
2022-09-06T10:07:13.097Z,30.65
2022-09-06T10:09:42.653Z,31.41
2022-09-06T10:12:15.973Z,32.07
2022-09-06T10:14:48.675Z,31.33
2022-09-06T10:17:30.437Z,31.31
2022-09-06T10:20:00.270Z,32.49
2022-09-06T10:22:28.462Z,30.24
2022-09-06T10:25:25.767Z,31.63
2022-09-06T10:28:27.494Z,31.10
2022-09-06T10:31:10.144Z,30.82
2022-09-06T10:33:48.430Z,31.78
2022-09-06T10:36:21.024Z,32.03
2022-09-06T10:39:08.449Z,32.90
2022-09-06T10:42:00.798Z,32.38
2022-09-06T10:45:14.757Z,32.64
2022-09-06T10:47:56.396Z,31.72
2022-09-06T10:50:57.524Z,31.87
2022-09-06T10:53:34.880Z,31.42
2022-09-06T10:56:07.324Z,32.32
2022-09-06T11:02:01.001Z,30.94
2022-09-06T11:04:32.251Z,30.54
2022-09-06T11:07:02.819Z,31.63
2022-09-06T11:09:35.958Z,30.58
2022-09-06T11:12:23.822Z,30.69
2022-09-06T11:14:51.397Z,31.28
2022-09-06T11:17:52.310Z,30.31
2022-09-06T11:20:21.498Z,30.33
2022-09-06T11:23:02.903Z,30.11
2022-09-06T11:25:56.579Z,30.21
2022-09-06T11:28:35.309Z,31.37
2022-09-06T11:31:02.813Z,31.32
2022-09-06T11:33:35.488Z,31.10
2022-09-06T11:36:34.377Z,31.38
2022-09-06T11:39:03.368Z,32.93
2022-09-06T11:41:33.896Z,32.90
2022-09-06T11:44:00.937Z,32.73
2022-09-06T11:46:33.263Z,32.46
2022-09-06T11:49:00.362Z,32.30
2022-09-06T11:51:40.200Z,32.09
2022-09-06T11:54:19.953Z,32.73
2022-09-06T11:56:46.274Z,33.10
2022-09-06T11:59:21.614Z,32.55
2022-09-06T12:02:03.479Z,32.45
2022-09-06T12:05:01.134Z,32.86
2022-09-06T12:07:29.361Z,33.17
2022-09-06T12:09:56.121Z,32.42
2022-09-06T12:12:40.445Z,32.93
2022-09-06T12:15:26.661Z,33.35
2022-09-06T12:17:53.484Z,33.35
2022-09-06T12:20:47.662Z,33.42
2022-09-06T12:23:32.703Z,33.38
2022-09-06T12:25:59.195Z,33.59
2022-09-06T12:28:32.032Z,33.25
2022-09-06T12:30:59.514Z,32.93
2022-09-06T12:33:39.301Z,32.35
2022-09-06T12:36:29.656Z,32.02
2022-09-06T12:39:08.489Z,32.48
2022-09-06T12:41:43.703Z,32.96
2022-09-06T12:44:11.321Z,33.41
2022-09-06T12:46:39.936Z,33.49
2022-09-06T12:49:09.422Z,32.84
2022-09-06T12:51:40.990Z,33.12
2022-09-06T12:54:25.573Z,33.49
2022-09-06T12:56:53.368Z,32.81
2022-09-06T12:59:25.397Z,32.61
2022-09-06T13:02:00.856Z,32.32
2022-09-06T13:04:36.605Z,32.52
2022-09-06T13:07:04.992Z,32.74
2022-09-06T13:09:31.973Z,32.51
2022-09-06T13:12:08.176Z,32.66
2022-09-06T13:14:35.683Z,32.42
2022-09-06T13:17:02.408Z,31.93
2022-09-06T13:19:40.597Z,31.40
2022-09-06T13:22:10.920Z,31.58
2022-09-06T13:24:37.280Z,31.00
2022-09-06T13:27:45.838Z,31.61
2022-09-06T13:30:42.143Z,31.90
2022-09-06T13:33:23.239Z,32.05
2022-09-06T13:36:04.167Z,31.52
2022-09-06T13:38:32.610Z,31.21
2022-09-06T13:41:12.570Z,31.26
2022-09-06T13:43:46.157Z,31.46
2022-09-06T13:46:12.632Z,31.09
2022-09-06T13:48:44.522Z,31.12
2022-09-06T13:51:11.778Z,31.08
2022-09-06T13:53:38.164Z,30.85
2022-09-06T13:56:08.619Z,30.79
2022-09-06T13:58:36.132Z,31.01
2022-09-06T14:01:03.025Z,29.72
2022-09-06T14:03:32.459Z,29.85
2022-09-06T14:06:00.261Z,30.17
2022-09-06T14:08:38.867Z,30.53
2022-09-06T14:11:14.909Z,30.48
2022-09-06T14:13:41.746Z,30.59
2022-09-06T14:16:08.394Z,30.51
2022-09-06T14:18:34.889Z,30.33
2022-09-06T14:21:01.360Z,30.11
2022-09-06T14:23:28.401Z,29.79
2022-09-06T14:26:00.198Z,29.98
2022-09-06T14:28:27.200Z,29.65
2022-09-06T14:30:54.380Z,29.56
2022-09-06T14:33:21.386Z,29.67
2022-09-06T14:35:48.895Z,29.88
2022-09-06T14:38:15.503Z,29.85
2022-09-06T14:40:44.183Z,29.80
2022-09-06T14:43:10.955Z,29.50
2022-09-06T14:45:37.611Z,29.63
2022-09-06T14:48:04.433Z,29.72
2022-09-06T14:50:31.404Z,29.75
2022-09-06T14:52:58.419Z,29.52
2022-09-06T14:55:24.879Z,29.48
2022-09-06T14:57:51.317Z,29.38
2022-09-06T15:00:18.930Z,29.42
2022-09-06T15:02:45.373Z,29.34
2022-09-06T15:05:11.882Z,29.32
2022-09-06T15:07:38.298Z,29.16
2022-09-06T15:10:05.154Z,29.22
2022-09-06T15:12:31.610Z,29.19
2022-09-06T15:14:58.010Z,28.96
2022-09-06T15:17:25.106Z,28.90
2022-09-06T15:19:51.526Z,28.90
2022-09-06T15:22:17.909Z,28.94
2022-09-06T15:24:47.338Z,28.71
2022-09-06T15:27:13.785Z,28.56
2022-09-06T15:29:40.241Z,28.49
2022-09-06T15:32:07.273Z,28.59
2022-09-06T15:34:33.781Z,28.60
2022-09-06T15:37:00.216Z,28.48
2022-09-06T15:39:26.759Z,28.22
2022-09-06T15:41:53.228Z,28.32
2022-09-06T15:44:21.471Z,28.39
2022-09-06T15:46:53.965Z,28.30
2022-09-06T15:49:31.841Z,28.37
2022-09-06T15:52:01.315Z,28.49
2022-09-06T15:54:46.984Z,28.10
2022-09-06T15:57:16.310Z,28.26
2022-09-06T15:59:42.859Z,28.16
2022-09-06T16:02:09.688Z,28.00
2022-09-06T16:04:36.135Z,28.21
2022-09-06T16:07:02.619Z,28.08
2022-09-06T16:09:29.365Z,28.03
2022-09-06T16:11:55.803Z,28.16
2022-09-06T16:14:22.318Z,27.94
2022-09-06T16:16:49.303Z,27.88
2022-09-06T16:19:16.199Z,27.88
2022-09-06T16:21:43.744Z,27.80
2022-09-06T16:24:13.287Z,27.56
2022-09-06T16:26:44.706Z,27.55
2022-09-06T16:29:13.234Z,27.53
2022-09-06T16:31:40.860Z,27.54
2022-09-06T16:34:11.948Z,27.62
2022-09-06T16:36:38.690Z,27.42
2022-09-06T16:39:06.125Z,27.14
2022-09-06T16:41:39.381Z,27.27
2022-09-06T16:44:07.302Z,27.22
2022-09-06T16:46:33.957Z,27.29
2022-09-06T16:49:02.757Z,27.28
2022-09-06T16:51:31.384Z,27.14
2022-09-06T16:53:58.865Z,27.11
2022-09-06T16:56:29.177Z,27.07
2022-09-06T16:58:58.522Z,27.01
2022-09-06T17:01:26.806Z,27.06
2022-09-06T17:03:53.648Z,26.92
2022-09-06T17:06:20.999Z,26.88
2022-09-06T17:08:47.811Z,26.85
2022-09-06T17:11:16.764Z,26.93
2022-09-06T17:13:45.083Z,26.76
2022-09-06T17:16:31.208Z,26.82
2022-09-06T17:18:59.102Z,26.81
2022-09-06T17:21:25.786Z,26.70
2022-09-06T17:23:52.441Z,26.65
2022-09-06T17:26:21.098Z,26.64
2022-09-06T17:28:49.298Z,26.41
2022-09-06T17:31:16.402Z,26.47
2022-09-06T17:33:42.850Z,26.47
2022-09-06T17:36:17.007Z,26.35
2022-09-06T17:38:44.917Z,26.29
2022-09-06T17:41:27.361Z,26.33
2022-09-06T17:43:54.912Z,26.29
2022-09-06T17:46:28.381Z,26.18
2022-09-06T17:48:56.089Z,26.15
2022-09-06T17:51:23.025Z,26.21
2022-09-06T17:53:49.489Z,26.19
2022-09-06T17:56:17.884Z,26.09
2022-09-06T17:58:53.322Z,25.94
2022-09-06T18:01:19.972Z,25.96
2022-09-06T18:03:47.378Z,25.90
2022-09-06T18:06:15.908Z,25.85
2022-09-06T18:08:43.943Z,25.73
2022-09-06T18:11:11.477Z,25.64
2022-09-06T18:13:38.037Z,25.65
2022-09-06T18:16:05.047Z,25.56
2022-09-06T18:18:32.907Z,25.46
2022-09-06T18:20:59.570Z,25.57
2022-09-06T18:23:25.972Z,25.47
2022-09-06T18:26:05.874Z,25.35
2022-09-06T18:28:34.847Z,25.30
2022-09-06T18:31:05.354Z,25.29
2022-09-06T18:33:32.391Z,25.22
2022-09-06T18:35:58.791Z,25.05
2022-09-06T18:38:25.330Z,25.01
2022-09-06T18:40:59.978Z,24.86
2022-09-06T18:43:36.385Z,24.68
2022-09-06T18:46:08.332Z,24.67
2022-09-06T18:48:36.665Z,24.59
2022-09-06T18:51:05.125Z,24.54
2022-09-06T18:53:31.753Z,24.48
2022-09-06T18:55:58.166Z,24.47
2022-09-06T18:58:24.817Z,24.51
2022-09-06T19:00:52.537Z,24.43
2022-09-06T19:03:19.872Z,24.41
2022-09-06T19:05:46.305Z,24.37
2022-09-06T19:08:12.748Z,24.35
2022-09-06T19:10:39.222Z,24.27
2022-09-06T19:13:05.683Z,24.13
2022-09-06T19:15:32.079Z,24.05
2022-09-06T19:17:58.517Z,24.07
2022-09-06T19:20:24.977Z,24.12
2022-09-06T19:22:51.448Z,24.05
2022-09-06T19:25:19.015Z,23.91
2022-09-06T19:27:48.818Z,23.88
2022-09-06T19:30:15.538Z,23.85
2022-09-06T19:32:41.954Z,23.75
2022-09-06T19:35:08.745Z,23.66
2022-09-06T19:37:35.347Z,23.68
2022-09-06T19:40:02.123Z,23.70
2022-09-06T19:42:29.089Z,23.82
2022-09-06T19:44:55.573Z,23.84
2022-09-06T19:47:22.003Z,23.83
2022-09-06T19:49:48.497Z,23.76
2022-09-06T19:52:14.917Z,23.81
2022-09-06T19:54:42.561Z,23.75
2022-09-06T19:57:08.960Z,23.78
2022-09-06T19:59:36.607Z,23.78
2022-09-06T20:02:03.502Z,23.76
2022-09-06T20:04:30.268Z,23.69
2022-09-06T20:06:56.764Z,23.70
2022-09-06T20:09:23.186Z,23.70
2022-09-06T20:11:49.832Z,23.67
2022-09-06T20:14:16.296Z,23.67
2022-09-06T20:16:43.022Z,23.61
2022-09-06T20:19:11.051Z,23.44
2022-09-06T20:21:37.455Z,23.19
2022-09-06T20:24:04.118Z,22.96
2022-09-06T20:26:30.791Z,22.76
2022-09-06T20:28:59.405Z,22.58
2022-09-06T20:31:28.033Z,22.40
2022-09-06T20:33:54.778Z,22.39
2022-09-06T20:36:21.250Z,22.39
2022-09-06T20:38:48.424Z,22.30
2022-09-06T20:41:17.311Z,22.16
2022-09-06T20:43:44.702Z,22.05
2022-09-06T20:46:14.712Z,21.94
2022-09-06T20:48:44.645Z,21.79
2022-09-06T20:51:19.016Z,21.79
2022-09-06T20:53:48.262Z,21.69
2022-09-06T20:56:19.728Z,21.56
2022-09-06T20:58:55.212Z,21.59
2022-09-06T21:01:24.468Z,21.40
2022-09-06T21:03:54.568Z,21.43
2022-09-06T21:06:22.344Z,21.42
2022-09-06T21:08:49.466Z,21.34
2022-09-06T21:11:16.118Z,21.33
2022-09-06T21:13:42.613Z,21.31
2022-09-06T21:16:09.579Z,21.28
2022-09-06T21:18:36.571Z,21.40
2022-09-06T21:21:05.882Z,21.30
2022-09-06T21:23:34.558Z,21.22
2022-09-06T21:26:06.127Z,21.27
2022-09-06T21:28:35.605Z,21.10
2022-09-06T21:31:14.966Z,21.23
2022-09-06T21:33:47.265Z,21.15
2022-09-06T21:36:16.418Z,21.28
2022-09-06T21:38:45.387Z,21.19
2022-09-06T21:41:13.565Z,21.19
2022-09-06T21:43:40.270Z,21.17
2022-09-06T21:46:09.844Z,21.26
2022-09-06T21:48:41.244Z,21.15
2022-09-06T21:51:08.964Z,21.16
2022-09-06T21:53:36.312Z,21.18
2022-09-06T21:56:06.124Z,21.19
2022-09-06T21:58:33.267Z,21.08
2022-09-06T22:01:01.131Z,21.12
2022-09-06T22:03:29.858Z,21.06
2022-09-06T22:05:56.902Z,21.12
2022-09-06T22:08:24.158Z,21.26
2022-09-06T22:10:51.434Z,20.98
2022-09-06T22:13:19.699Z,21.11
2022-09-06T22:15:46.247Z,21.26
2022-09-06T22:18:13.507Z,21.21
2022-09-06T22:20:40.123Z,21.24
2022-09-06T22:23:07.836Z,21.25
2022-09-06T22:25:34.271Z,21.28
2022-09-06T22:28:01.240Z,21.18
2022-09-06T22:30:28.211Z,20.98
2022-09-06T22:32:54.645Z,21.17
2022-09-06T22:35:21.850Z,21.01
2022-09-06T22:37:48.388Z,20.96
2022-09-06T22:40:14.924Z,20.51
2022-09-06T22:42:41.338Z,20.62
2022-09-06T22:45:08.193Z,20.85
2022-09-06T22:47:34.603Z,20.79
2022-09-06T22:50:01.003Z,20.63
2022-09-06T22:52:27.587Z,20.63
2022-09-06T22:54:53.990Z,20.60
2022-09-06T22:57:20.641Z,20.51
2022-09-06T22:59:47.047Z,20.48
2022-09-06T23:02:13.498Z,20.23
2022-09-06T23:04:39.940Z,20.25
2022-09-06T23:07:06.986Z,20.27
2022-09-06T23:09:33.394Z,20.09
2022-09-06T23:11:59.873Z,20.18
2022-09-06T23:14:28.080Z,19.86
2022-09-06T23:16:54.536Z,19.78
2022-09-06T23:19:20.964Z,19.66
2022-09-06T23:21:47.491Z,19.85
2022-09-06T23:24:13.952Z,19.73
2022-09-06T23:26:40.375Z,19.64
2022-09-06T23:29:07.835Z,19.23
2022-09-06T23:31:34.865Z,19.39
2022-09-06T23:34:02.032Z,19.17
2022-09-06T23:36:29.247Z,19.26
2022-09-06T23:38:56.770Z,19.36
2022-09-06T23:41:24.138Z,19.38
2022-09-06T23:43:50.877Z,19.31
2022-09-06T23:46:17.592Z,19.13
2022-09-06T23:48:44.224Z,18.87
2022-09-06T23:51:11.802Z,19.02
2022-09-06T23:53:39.237Z,18.75
2022-09-06T23:56:07.019Z,18.92
2022-09-06T23:58:33.595Z,18.91
